Time;durP1;ratioP1;P1;durP2;ratioP2;P2;SDS_P1;SDS_P2;PMS_P1;PMS_P2;Temp;Humidity;BMP_temperature;BMP_pressure;BME280_temperature;BME280_humidity;BME280_pressure;Samples;Min_cycle;Max_cycle;Signal;HPM_P1;HPM_P2
2023/10/13 00:02:07;;;;;;;746.27;217.03;;;13.50;99.90;;;;;;5133806;27;20281;-84
2023/10/13 00:04:35;;;;;;;745.73;216.73;;;13.90;99.90;;;;;;5133836;27;20077;-84
2023/10/13 00:07:03;;;;;;;742.97;214.90;;;13.60;99.90;;;;;;5142558;27;20345;-84
2023/10/13 00:09:32;;;;;;;747.87;217.80;;;13.60;99.90;;;;;;5142186;27;20287;-84
2023/10/13 00:12:01;;;;;;;744.77;214.87;;;13.60;99.90;;;;;;5136076;27;20299;-85
2023/10/13 00:14:33;;;;;;;745.63;217.23;;;13.90;99.90;;;;;;5153401;27;20295;-85
2023/10/13 00:17:10;;;;;;;753.47;218.97;;;13.70;99.90;;;;;;5175391;27;20310;-85
2023/10/13 00:20:00;;;;;;;754.40;219.33;;;13.70;99.90;;;;;;5175257;27;20303;-84
2023/10/13 00:22:24;;;;;;;750.53;217.50;;;13.80;99.90;;;;;;5174452;27;20295;-85
2023/10/13 00:24:51;;;;;;;752.53;216.93;;;13.80;99.90;;;;;;5175050;27;20310;-85
2023/10/13 00:30:17;;;;;;;756.37;219.37;;;13.80;99.90;;;;;;5167685;27;20351;-85
2023/10/13 00:32:54;;;;;;;757.70;220.33;;;13.80;99.90;;;;;;5159752;27;20775;-84
2023/10/13 00:35:36;;;;;;;756.50;219.37;;;13.90;99.90;;;;;;5130832;27;20817;-84
2023/10/13 00:38:16;;;;;;;754.27;218.50;;;13.90;99.90;;;;;;5139794;27;20342;-85
2023/10/13 00:40:44;;;;;;;755.93;219.07;;;14.00;99.90;;;;;;5155945;27;20367;-84
2023/10/13 00:45:55;;;;;;;757.30;220.20;;;14.00;99.90;;;;;;5169228;27;20367;-85
2023/10/13 00:48:34;;;;;;;752.03;219.27;;;14.00;99.90;;;;;;5139807;27;20062;-84
2023/10/13 00:51:06;;;;;;;756.63;219.90;;;14.00;99.90;;;;;;5158379;27;20280;-84
2023/10/13 00:53:44;;;;;;;756.07;220.33;;;14.10;99.90;;;;;;5158203;27;20631;-84
2023/10/13 00:56:26;;;;;;;759.43;220.00;;;14.10;99.90;;;;;;5162631;27;20320;-85
2023/10/13 00:58:54;;;;;;;755.67;218.30;;;14.20;99.90;;;;;;5161882;27;20713;-84
2023/10/13 01:01:21;;;;;;;762.63;219.70;;;14.30;99.90;;;;;;5169567;27;20290;-84
2023/10/13 01:03:50;;;;;;;764.40;220.10;;;14.20;99.90;;;;;;5175927;27;20294;-83
2023/10/13 01:06:19;;;;;;;762.90;220.40;;;14.30;99.90;;;;;;5157213;27;20534;-84
2023/10/13 01:08:51;;;;;;;757.27;217.53;;;14.40;99.90;;;;;;5139208;27;20319;-84
2023/10/13 01:11:23;;;;;;;767.70;220.33;;;14.50;99.90;;;;;;5145755;27;20635;-84
2023/10/13 01:13:51;;;;;;;771.07;221.80;;;14.60;99.90;;;;;;5164731;27;20646;-84
2023/10/13 01:16:23;;;;;;;772.40;221.60;;;14.60;99.90;;;;;;5163974;27;20301;-83
2023/10/13 01:18:49;;;;;;;764.87;218.90;;;14.70;99.90;;;;;;5157504;27;20291;-84
2023/10/13 01:21:27;;;;;;;763.33;219.57;;;14.70;99.90;;;;;;5175321;27;20276;-83
2023/10/13 01:23:53;;;;;;;753.60;219.90;;;14.90;99.90;;;;;;5153402;27;20295;-84
2023/10/13 01:26:24;;;;;;;751.90;220.97;;;14.90;99.90;;;;;;5173645;27;20313;-83
2023/10/13 01:28:50;;;;;;;746.80;220.00;;;15.00;99.90;;;;;;5174120;27;20159;-84
2023/10/13 01:31:30;;;;;;;737.00;219.87;;;15.00;99.90;;;;;;5160041;27;20284;-84
2023/10/13 01:33:58;;;;;;;732.40;218.17;;;15.00;99.90;;;;;;5157534;27;20277;-84
2023/10/13 01:36:31;;;;;;;764.83;224.20;;;15.00;99.90;;;;;;5157847;27;20341;-84
2023/10/13 01:39:01;;;;;;;769.07;224.37;;;15.10;99.90;;;;;;5142234;27;20296;-85
2023/10/13 01:41:27;;;;;;;765.57;223.27;;;15.10;99.90;;;;;;5158558;27;20295;-84
2023/10/13 01:43:53;;;;;;;772.53;223.33;;;15.10;99.90;;;;;;5158730;27;20306;-83
2023/10/13 01:46:21;;;;;;;772.43;224.30;;;15.20;99.90;;;;;;5178179;27;20038;-84
2023/10/13 01:48:47;;;;;;;773.20;225.37;;;15.20;99.90;;;;;;5174878;27;20279;-84
2023/10/13 01:51:13;;;;;;;759.13;220.93;;;15.20;99.90;;;;;;5138973;27;20292;-85
2023/10/13 01:53:41;;;;;;;752.43;220.10;;;15.20;99.90;;;;;;5157161;27;20475;-84
2023/10/13 01:56:10;;;;;;;746.40;221.93;;;15.30;99.90;;;;;;5138417;27;20050;-84
2023/10/13 01:58:42;;;;;;;755.23;222.73;;;15.30;99.90;;;;;;5156700;27;20367;-84
2023/10/13 02:01:11;;;;;;;766.33;222.90;;;15.30;99.90;;;;;;5156216;27;20906;-84
2023/10/13 02:03:47;;;;;;;761.00;221.63;;;15.30;99.90;;;;;;5169732;27;20292;-84
2023/10/13 02:06:17;;;;;;;764.00;220.73;;;15.30;99.90;;;;;;5157598;27;20617;-84
2023/10/13 02:08:47;;;;;;;764.13;222.67;;;15.40;99.90;;;;;;5157290;27;20284;-84
2023/10/13 02:11:12;;;;;;;766.57;223.80;;;15.40;99.90;;;;;;5156030;27;20716;-83
2023/10/13 02:13:48;;;;;;;769.03;223.30;;;15.40;99.90;;;;;;5137814;27;20494;-84
2023/10/13 02:16:18;;;;;;;781.63;225.40;;;15.40;99.90;;;;;;5156566;27;20043;-85
2023/10/13 02:18:44;;;;;;;785.80;227.70;;;15.50;99.90;;;;;;5135393;27;20305;-84
2023/10/13 02:21:13;;;;;;;788.23;227.97;;;15.50;99.90;;;;;;5136129;27;20284;-85
2023/10/13 02:23:45;;;;;;;801.83;229.93;;;15.20;99.90;;;;;;5156104;27;20554;-84
2023/10/13 02:26:15;;;;;;;785.40;226.73;;;15.50;99.90;;;;;;5137987;27;20315;-83
2023/10/13 02:28:44;;;;;;;793.70;229.10;;;15.50;99.90;;;;;;5137955;27;20303;-84
2023/10/13 02:31:11;;;;;;;783.60;228.40;;;15.50;99.90;;;;;;5138205;27;20784;-84
2023/10/13 02:33:44;;;;;;;775.10;227.10;;;15.60;99.90;;;;;;5137398;27;20296;-84
2023/10/13 02:36:12;;;;;;;772.47;226.23;;;15.60;99.90;;;;;;5145611;27;20276;-84
2023/10/13 02:41:09;;;;;;;793.87;229.13;;;15.70;99.90;;;;;;5176821;27;20267;-84
2023/10/13 02:43:36;;;;;;;801.40;229.40;;;15.70;99.90;;;;;;5158308;27;20334;-85
2023/10/13 02:46:02;;;;;;;800.70;230.10;;;15.70;99.90;;;;;;5175669;27;20629;-84
2023/10/13 02:48:41;;;;;;;801.33;230.50;;;15.70;99.90;;;;;;5158271;27;20335;-84
2023/10/13 02:51:17;;;;;;;809.30;231.30;;;15.70;99.90;;;;;;5157864;27;20378;-84
2023/10/13 02:53:48;;;;;;;824.47;234.77;;;15.70;99.90;;;;;;5175680;27;20315;-83
2023/10/13 02:56:14;;;;;;;816.17;233.80;;;15.70;99.90;;;;;;5157689;27;20402;-85
2023/10/13 02:58:45;;;;;;;815.87;232.27;;;15.80;99.90;;;;;;5176287;27;20378;-86
2023/10/13 03:01:17;;;;;;;772.53;223.73;;;15.80;99.90;;;;;;5176734;27;20302;-85
2023/10/13 03:03:51;;;;;;;816.00;233.00;;;15.80;99.90;;;;;;5176447;27;20287;-85
2023/10/13 03:06:21;;;;;;;822.17;232.97;;;15.80;99.90;;;;;;5166723;27;20292;-85
2023/10/13 03:08:48;;;;;;;818.10;233.23;;;15.80;99.90;;;;;;5166262;27;20291;-84
2023/10/13 03:11:13;;;;;;;820.33;233.73;;;15.80;99.90;;;;;;5141144;27;20323;-85
2023/10/13 03:13:44;;;;;;;812.20;232.20;;;15.90;99.90;;;;;;5155398;27;20312;-85
2023/10/13 03:16:17;;;;;;;811.60;231.67;;;15.90;99.90;;;;;;5136606;27;20129;-86
2023/10/13 03:19:07;;;;;;;798.93;226.57;;;15.90;99.90;;;;;;5155294;27;20280;-85
2023/10/13 03:21:32;;;;;;;799.13;227.90;;;15.90;99.90;;;;;;5171222;27;20313;-85
2023/10/13 03:24:04;;;;;;;806.77;231.30;;;15.90;99.90;;;;;;5176028;27;20849;-85
2023/10/13 03:26:34;;;;;;;808.77;228.10;;;15.90;99.90;;;;;;5175944;27;20034;-85
2023/10/13 03:29:03;;;;;;;810.23;229.57;;;15.90;99.90;;;;;;5139930;27;20300;-85
2023/10/13 03:31:29;;;;;;;810.50;227.57;;;15.90;99.90;;;;;;5157171;27;20294;-85
2023/10/13 03:33:59;;;;;;;808.30;228.80;;;15.90;99.90;;;;;;5157108;27;20378;-85
2023/10/13 03:39:13;;;;;;;816.70;231.70;;;16.00;99.90;;;;;;5175876;27;20290;-86
2023/10/13 03:41:39;;;;;;;813.63;229.53;;;16.00;99.90;;;;;;5175740;27;20280;-85
2023/10/13 03:44:13;;;;;;;810.30;229.53;;;16.00;99.90;;;;;;5149948;27;20292;-86
2023/10/13 03:46:41;;;;;;;814.30;230.33;;;16.00;99.90;;;;;;5136210;27;20417;-86
2023/10/13 03:49:12;;;;;;;815.93;232.87;;;16.00;99.90;;;;;;5133232;27;20784;-86
2023/10/13 03:51:39;;;;;;;810.63;231.63;;;16.00;99.90;;;;;;5115621;27;20298;-86
2023/10/13 03:54:10;;;;;;;821.60;233.43;;;16.10;99.90;;;;;;5098472;27;20285;-85
2023/10/13 03:56:39;;;;;;;812.53;231.47;;;16.10;99.90;;;;;;5122498;27;20292;-86
2023/10/13 03:59:09;;;;;;;811.93;230.33;;;16.10;99.90;;;;;;5117981;27;20296;-85
2023/10/13 04:01:45;;;;;;;825.60;238.43;;;16.10;99.90;;;;;;5135585;27;20287;-86
2023/10/13 04:04:12;;;;;;;817.17;231.93;;;16.10;99.90;;;;;;5156304;27;20299;-86
2023/10/13 04:12:21;;;;;;;828.67;235.63;;;16.10;99.90;;;;;;5175322;27;20280;-86
2023/10/13 04:17:25;;;;;;;823.23;233.93;;;16.20;99.90;;;;;;5156526;27;20300;-86
2023/10/13 04:36:14;;;;;;;808.53;229.83;;;16.10;99.90;;;;;;5154278;27;20276;-86
2023/10/13 04:41:22;;;;;;;820.07;232.90;;;16.10;99.90;;;;;;5154276;27;20340;-86
2023/10/13 04:43:57;;;;;;;822.70;232.50;;;16.10;99.90;;;;;;5137216;27;20351;-87
2023/10/13 04:46:35;;;;;;;822.97;232.50;;;16.10;99.90;;;;;;5154387;27;20276;-85
2023/10/13 04:49:09;;;;;;;824.57;234.83;;;16.10;99.90;;;;;;5135917;27;20294;-86
2023/10/13 04:54:49;;;;;;;824.80;236.57;;;16.10;99.90;;;;;;5090109;28;20369;-86
2023/10/13 04:57:23;;;;;;;826.20;235.03;;;16.10;99.90;;;;;;5059901;28;20359;-86
2023/10/13 06:30:08;;;;;;;799.57;229.70;;;15.90;99.90;;;;;;5042062;28;20357;-85
2023/10/13 06:32:33;;;;;;;806.03;228.53;;;15.90;99.90;;;;;;5051784;28;20299;-84
2023/10/13 06:35:18;;;;;;;809.80;229.53;;;15.90;99.90;;;;;;5051778;28;20303;-83
2023/10/13 06:37:44;;;;;;;807.67;227.60;;;15.90;99.90;;;;;;5035369;28;20041;-85
2023/10/13 06:43:11;;;;;;;810.28;231.18;;;15.90;99.90;;;;;;5052084;28;20676;-86
2023/10/13 06:45:37;;;;;;;807.27;229.53;;;15.90;99.90;;;;;;5035328;28;20053;-84
2023/10/13 06:48:04;;;;;;;807.83;229.30;;;15.90;99.90;;;;;;5035571;28;20299;-85
2023/10/13 06:50:38;;;;;;;813.10;230.73;;;15.90;99.90;;;;;;5051778;28;20279;-85
2023/10/13 06:53:05;;;;;;;805.93;230.43;;;15.90;99.90;;;;;;5051472;28;20345;-85
2023/10/13 06:55:35;;;;;;;812.57;232.27;;;16.00;99.90;;;;;;5067613;28;20298;-86
2023/10/13 06:58:06;;;;;;;812.37;231.77;;;16.00;99.90;;;;;;5073757;28;20318;-83
2023/10/13 07:00:37;;;;;;;813.93;234.70;;;16.10;99.90;;;;;;5111449;27;20292;-84
2023/10/13 07:03:17;;;;;;;806.07;229.00;;;16.10;99.90;;;;;;5102530;27;20304;-85
2023/10/13 07:05:43;;;;;;;800.67;228.73;;;16.20;99.90;;;;;;5113311;28;20285;-85
2023/10/13 07:08:14;;;;;;;748.47;221.23;;;16.10;99.90;;;;;;5115637;27;20381;-87
2023/10/13 07:11:13;;;;;;;809.00;233.40;;;16.20;99.90;;;;;;5113626;28;20384;-85
2023/10/13 07:13:39;;;;;;;738.57;217.60;;;16.20;99.90;;;;;;5119871;27;20793;-86
2023/10/13 07:16:12;;;;;;;737.33;218.17;;;16.20;99.90;;;;;;5134495;27;20285;-85
2023/10/13 07:18:49;;;;;;;794.57;226.83;;;16.30;99.90;;;;;;5119313;27;20054;-85
2023/10/13 07:21:16;;;;;;;795.53;226.47;;;16.30;99.90;;;;;;5114380;28;20731;-85
2023/10/13 07:24:01;;;;;;;797.47;228.57;;;16.30;99.90;;;;;;5113951;28;20790;-85
2023/10/13 07:26:28;;;;;;;783.90;224.30;;;16.30;99.90;;;;;;5123671;27;20300;-85
2023/10/13 07:28:54;;;;;;;785.23;223.63;;;16.30;99.90;;;;;;5112723;28;20309;-86
2023/10/13 07:31:20;;;;;;;779.90;224.13;;;16.30;99.90;;;;;;5112793;28;20319;-85
2023/10/13 07:33:47;;;;;;;777.70;223.50;;;16.30;99.90;;;;;;5112527;28;20104;-85
2023/10/13 07:36:17;;;;;;;780.40;224.13;;;16.30;99.90;;;;;;5113999;28;20277;-84
2023/10/13 07:38:48;;;;;;;772.27;223.07;;;16.30;99.90;;;;;;5112017;28;20300;-86
2023/10/13 07:41:15;;;;;;;775.00;225.73;;;16.30;99.90;;;;;;5113461;27;20388;-88
2023/10/13 07:43:44;;;;;;;779.20;225.97;;;16.30;99.90;;;;;;5109317;28;20355;-86
2023/10/13 07:46:12;;;;;;;771.70;224.77;;;16.30;99.90;;;;;;5113502;28;20278;-87
2023/10/13 07:48:38;;;;;;;779.17;225.03;;;16.30;99.90;;;;;;5114314;27;20355;-84
2023/10/13 07:51:11;;;;;;;776.03;224.60;;;16.30;99.90;;;;;;5101427;27;20305;-88
2023/10/13 07:53:43;;;;;;;779.13;225.30;;;16.30;99.90;;;;;;5109400;27;20336;-85
2023/10/13 07:56:13;;;;;;;769.53;222.33;;;16.30;99.90;;;;;;5111520;28;20309;-84
2023/10/13 07:59:15;;;;;;;773.57;226.57;;;16.30;99.90;;;;;;5126259;27;20781;-83
2023/10/13 08:01:34;;;;;;;770.30;225.23;;;16.30;99.90;;;;;;5131068;27;20389;-84
2023/10/13 08:04:11;;;;;;;767.93;222.90;;;16.30;99.90;;;;;;5135948;27;20698;-85
2023/10/13 08:06:40;;;;;;;770.03;224.87;;;16.30;99.90;;;;;;5144100;27;20835;-85
2023/10/13 08:09:10;;;;;;;769.43;224.37;;;16.30;99.90;;;;;;5155898;27;20311;-84
2023/10/13 08:11:54;;;;;;;762.67;221.57;;;16.30;99.90;;;;;;5155438;27;20288;-83
2023/10/13 08:14:33;;;;;;;768.17;223.30;;;16.30;99.90;;;;;;5154690;27;20276;-84
2023/10/13 08:17:06;;;;;;;725.10;218.30;;;16.30;99.90;;;;;;5133550;28;20388;-84
2023/10/13 08:19:39;;;;;;;767.17;223.77;;;16.30;99.90;;;;;;5147201;27;20284;-84
2023/10/13 08:27:34;;;;;;;768.13;222.90;;;16.30;99.90;;;;;;5155316;27;20280;-84
2023/10/13 08:35:09;;;;;;;762.10;222.00;;;16.30;99.90;;;;;;5143361;27;20300;-83
2023/10/13 08:38:17;;;;;;;766.13;223.77;;;16.40;99.90;;;;;;5115025;28;20309;-83
2023/10/13 08:43:14;;;;;;;766.57;221.77;;;16.40;99.90;;;;;;5154834;27;20299;-84
2023/10/13 08:48:16;;;;;;;767.43;224.10;;;16.50;99.90;;;;;;5134366;27;20662;-83
2023/10/13 08:50:52;;;;;;;767.37;223.27;;;16.50;99.90;;;;;;5156136;27;20277;-83
2023/10/13 08:53:31;;;;;;;768.27;223.73;;;16.50;99.90;;;;;;5158354;27;20302;-84
2023/10/13 08:56:08;;;;;;;767.17;221.23;;;16.60;99.90;;;;;;5160787;27;20782;-83
2023/10/13 09:01:45;;;;;;;778.50;225.55;;;16.60;99.90;;;;;;5139769;27;20281;-83
2023/10/13 09:12:14;;;;;;;774.23;224.57;;;16.80;99.90;;;;;;5159117;27;20618;-84
2023/10/13 09:14:44;;;;;;;775.77;224.40;;;16.90;99.90;;;;;;5155040;27;20292;-84
2023/10/13 09:17:34;;;;;;;781.27;227.07;;;17.00;99.90;;;;;;5156928;27;20304;-85
2023/10/13 09:25:34;;;;;;;784.40;227.80;;;17.20;99.90;;;;;;5158920;27;20784;-85
2023/10/13 09:28:00;;;;;;;781.23;225.77;;;17.30;99.90;;;;;;5157122;27;20284;-83
2023/10/13 09:30:30;;;;;;;767.30;223.90;;;17.40;99.90;;;;;;5150858;27;20768;-84
2023/10/13 09:33:08;;;;;;;760.17;222.23;;;17.60;99.90;;;;;;5136562;27;20281;-83
2023/10/13 09:35:36;;;;;;;757.40;221.93;;;17.60;99.90;;;;;;5128726;27;20295;-84
2023/10/13 09:38:03;;;;;;;733.03;221.07;;;17.70;99.90;;;;;;5161807;27;20854;-83
2023/10/13 09:43:05;;;;;;;747.90;221.47;;;17.80;99.90;;;;;;5159696;27;20298;-83
2023/10/13 09:45:36;;;;;;;750.67;221.07;;;17.90;99.90;;;;;;5160709;27;20292;-83
2023/10/13 09:48:06;;;;;;;756.90;224.17;;;18.00;99.90;;;;;;5157068;27;20370;-82
2023/10/13 09:50:40;;;;;;;747.00;221.70;;;18.10;99.90;;;;;;5157516;27;20333;-83
2023/10/13 09:53:10;;;;;;;741.33;221.17;;;18.10;99.90;;;;;;5154022;27;20852;-82
2023/10/13 09:55:44;;;;;;;750.80;221.50;;;18.20;99.90;;;;;;5136176;27;20667;-83
2023/10/13 09:58:15;;;;;;;724.43;221.10;;;18.30;99.90;;;;;;5136038;27;20301;-83
2023/10/13 10:00:49;;;;;;;736.97;221.03;;;18.30;99.90;;;;;;5145464;27;20296;-83
2023/10/13 10:03:29;;;;;;;725.37;220.00;;;18.40;99.90;;;;;;5159821;27;20311;-83
2023/10/13 10:06:05;;;;;;;739.93;219.37;;;18.50;99.90;;;;;;5144059;27;20794;-83
2023/10/13 10:08:33;;;;;;;764.20;224.77;;;18.70;99.90;;;;;;5145481;27;20371;-83
2023/10/13 10:11:31;;;;;;;766.17;223.80;;;18.80;99.90;;;;;;5156250;27;20284;-82
2023/10/13 10:14:17;;;;;;;772.30;222.87;;;18.80;99.90;;;;;;5156738;27;20311;-82
2023/10/13 10:17:07;;;;;;;782.60;223.53;;;18.90;99.90;;;;;;5158506;27;20652;-85
2023/10/13 10:19:45;;;;;;;787.00;225.13;;;18.90;99.90;;;;;;5141560;27;20296;-81
2023/10/13 10:22:17;;;;;;;797.00;224.57;;;18.90;99.90;;;;;;5147837;27;20315;-82
2023/10/13 10:24:43;;;;;;;793.33;224.73;;;18.90;99.90;;;;;;5156055;27;20390;-82
2023/10/13 10:27:14;;;;;;;806.30;224.77;;;18.90;99.90;;;;;;5142830;27;20304;-82
2023/10/13 10:29:52;;;;;;;807.83;224.73;;;18.90;99.90;;;;;;5155286;27;20348;-82
2023/10/13 10:32:18;;;;;;;806.90;227.57;;;18.90;99.90;;;;;;5154805;27;20291;-83
2023/10/13 10:34:44;;;;;;;800.43;224.57;;;19.00;99.90;;;;;;5141285;27;20866;-83
2023/10/13 10:37:12;;;;;;;774.70;222.37;;;19.00;99.90;;;;;;5137758;27;20384;-84
2023/10/13 10:39:47;;;;;;;807.67;226.57;;;19.00;99.90;;;;;;5138176;27;20292;-84
2023/10/13 10:42:22;;;;;;;804.58;226.45;;;19.10;99.90;;;;;;5159908;27;20375;-84
2023/10/13 10:44:55;;;;;;;787.65;221.60;;;19.20;99.90;;;;;;5139563;27;20107;-84
2023/10/13 10:47:42;;;;;;;791.57;225.37;;;19.40;99.90;;;;;;5143990;27;20037;-84
2023/10/13 10:50:08;;;;;;;795.80;228.23;;;19.40;99.90;;;;;;5116566;27;20739;-85
2023/10/13 10:52:37;;;;;;;785.90;226.47;;;19.50;99.90;;;;;;5156318;27;20282;-84
2023/10/13 10:55:07;;;;;;;792.60;224.67;;;19.60;99.90;;;;;;5155625;27;20276;-84
2023/10/13 10:57:37;;;;;;;791.63;226.37;;;19.70;99.90;;;;;;5134685;27;20316;-84
2023/10/13 11:00:11;;;;;;;799.17;224.43;;;19.70;99.90;;;;;;5116646;27;20369;-85
2023/10/13 11:02:40;;;;;;;796.80;224.83;;;19.70;99.90;;;;;;5156890;27;20431;-85
2023/10/13 11:05:16;;;;;;;792.23;224.83;;;19.70;99.90;;;;;;5153266;27;20309;-84
2023/10/13 11:07:50;;;;;;;804.50;225.80;;;19.70;99.90;;;;;;5150458;27;20296;-85
2023/10/13 11:10:31;;;;;;;801.90;224.57;;;19.80;99.90;;;;;;5155921;27;20292;-85
2023/10/13 11:13:21;;;;;;;814.53;226.87;;;20.00;99.90;;;;;;5136764;27;20402;-85
2023/10/13 11:15:48;;;;;;;830.83;228.23;;;20.20;99.90;;;;;;5142861;27;20372;-84
2023/10/13 11:18:23;;;;;;;838.93;229.07;;;20.30;99.90;;;;;;5157521;27;20311;-85
2023/10/13 11:20:55;;;;;;;849.28;232.93;;;20.30;99.90;;;;;;5175755;27;20330;-84
2023/10/13 11:23:25;;;;;;;848.73;233.63;;;20.30;99.90;;;;;;5176361;27;20482;-84
2023/10/13 11:26:00;;;;;;;852.77;236.13;;;20.30;99.90;;;;;;5139070;27;20312;-84
2023/10/13 11:28:29;;;;;;;849.05;233.40;;;20.20;99.90;;;;;;5157896;27;20307;-84
2023/10/13 11:30:58;;;;;;;847.97;235.53;;;20.10;99.90;;;;;;5152961;27;20043;-85
2023/10/13 11:33:29;;;;;;;845.03;230.00;;;20.10;99.90;;;;;;5126770;27;20305;-84
2023/10/13 11:36:01;;;;;;;880.60;251.03;;;20.10;99.90;;;;;;5148154;27;20334;-85
2023/10/13 11:38:44;;;;;;;892.63;256.67;;;20.10;99.90;;;;;;5136444;27;20356;-89
2023/10/13 11:41:21;;;;;;;880.80;250.33;;;20.20;99.90;;;;;;5118830;27;20323;-84
2023/10/13 11:51:39;;;;;;;877.93;250.83;;;20.30;99.90;;;;;;5101501;28;20294;-84
2023/10/13 11:54:05;;;;;;;893.40;265.17;;;20.30;99.90;;;;;;5074815;28;20294;-84
2023/10/13 11:56:30;;;;;;;872.77;241.37;;;20.20;99.90;;;;;;5057296;28;20285;-84
2023/10/13 11:59:01;;;;;;;886.93;249.20;;;20.20;99.90;;;;;;5074439;28;20493;-84
2023/10/13 12:07:16;;;;;;;857.20;235.83;;;19.80;99.90;;;;;;5073986;28;20086;-86
2023/10/13 12:12:21;;;;;;;841.97;230.67;;;19.60;99.90;;;;;;5091026;28;20305;-85
2023/10/13 12:14:54;;;;;;;839.77;230.57;;;19.50;99.90;;;;;;5093327;28;20302;-84
2023/10/13 12:17:34;;;;;;;858.83;238.93;;;19.40;99.90;;;;;;5073949;28;20050;-85
2023/10/13 12:20:10;;;;;;;853.47;238.00;;;19.40;99.90;;;;;;5073082;28;20352;-84
2023/10/13 12:22:38;;;;;;;;;;;19.40;99.90;;;;;;5074416;28;20293;-85
2023/10/13 12:25:18;;;;;;;862.87;243.07;;;19.40;99.90;;;;;;5076114;27;19920;-85
2023/10/13 12:27:49;;;;;;;871.23;244.80;;;19.50;99.90;;;;;;5119625;27;20321;-84
2023/10/13 12:30:22;;;;;;;872.93;244.13;;;19.50;99.90;;;;;;5144702;27;20689;-85
2023/10/13 12:32:58;;;;;;;865.83;240.17;;;19.60;99.90;;;;;;5143461;27;20283;-84
2023/10/13 12:35:30;;;;;;;841.10;228.37;;;19.70;99.90;;;;;;5167248;27;20292;-84
2023/10/13 12:38:04;;;;;;;844.37;228.90;;;19.70;99.90;;;;;;5158279;27;20308;-84
2023/10/13 12:48:59;;;;;;;880.97;249.60;;;19.50;99.90;;;;;;5180714;27;20655;-85
2023/10/13 12:54:04;;;;;;;880.80;258.47;;;19.30;99.90;;;;;;5151674;27;20287;-83
2023/10/13 12:56:30;;;;;;;878.63;249.60;;;19.30;99.90;;;;;;5135938;27;20297;-85
2023/10/13 12:58:56;;;;;;;883.03;253.03;;;19.20;99.90;;;;;;5155559;27;20292;-85
2023/10/13 13:01:24;;;;;;;879.00;250.83;;;19.20;99.90;;;;;;5126653;27;20307;-85
2023/10/13 13:03:55;;;;;;;869.47;245.03;;;19.20;99.90;;;;;;5155831;27;20778;-91
2023/10/13 13:06:25;;;;;;;862.43;242.10;;;19.10;99.90;;;;;;5139459;27;20292;-84
2023/10/13 13:08:55;;;;;;;865.27;242.23;;;19.20;99.90;;;;;;5122452;27;20741;-86
2023/10/13 13:11:20;;;;;;;862.07;241.33;;;19.10;99.90;;;;;;5146575;27;20303;-86
2023/10/13 13:13:47;;;;;;;861.07;239.10;;;19.00;99.90;;;;;;5139021;27;20667;-85
2023/10/13 13:16:14;;;;;;;866.80;245.00;;;19.00;99.90;;;;;;5139424;27;20390;-86
2023/10/13 13:18:39;;;;;;;857.33;241.33;;;18.90;99.90;;;;;;5157601;27;20308;-83
2023/10/13 13:21:06;;;;;;;844.47;232.50;;;18.90;99.90;;;;;;5157437;27;20283;-87
2023/10/13 13:23:34;;;;;;;847.40;232.70;;;18.80;99.90;;;;;;5121683;27;20126;-86
2023/10/13 13:26:00;;;;;;;837.13;230.17;;;18.70;99.90;;;;;;5138041;27;20357;-85
2023/10/13 13:28:28;;;;;;;843.03;235.57;;;18.70;99.90;;;;;;5139020;27;20295;-85
2023/10/13 13:30:55;;;;;;;854.20;240.97;;;18.70;99.90;;;;;;5157324;27;20311;-85
2023/10/13 13:33:26;;;;;;;847.63;237.67;;;18.60;99.90;;;;;;5138656;27;20284;-86
2023/10/13 13:35:55;;;;;;;843.83;235.47;;;18.60;99.90;;;;;;5134937;27;20293;-85
2023/10/13 13:38:27;;;;;;;816.67;221.63;;;18.50;99.90;;;;;;5125008;27;20312;-83
2023/10/13 13:40:54;;;;;;;814.10;225.23;;;18.50;99.90;;;;;;5125488;27;20285;-87
2023/10/13 13:43:37;;;;;;;827.57;227.30;;;18.50;99.90;;;;;;5138614;27;20636;-86
2023/10/13 13:46:09;;;;;;;804.37;222.87;;;18.50;99.90;;;;;;5157398;27;20284;-86
2023/10/13 13:48:40;;;;;;;804.50;223.87;;;18.50;99.90;;;;;;5138418;27;20312;-86
2023/10/13 13:51:19;;;;;;;802.43;224.40;;;18.40;99.90;;;;;;5156706;27;20745;-87
2023/10/13 13:53:45;;;;;;;797.40;225.13;;;18.30;99.90;;;;;;5156898;27;20304;-86
2023/10/13 13:56:18;;;;;;;809.87;226.13;;;18.40;99.90;;;;;;5157648;27;20292;-86
2023/10/13 13:58:45;;;;;;;804.93;225.47;;;18.40;99.90;;;;;;5136703;27;20793;-86
2023/10/13 14:01:21;;;;;;;817.30;226.70;;;18.40;99.90;;;;;;5138768;27;20292;-86
2023/10/13 14:03:50;;;;;;;803.67;224.47;;;18.40;99.90;;;;;;5138524;27;20292;-86
2023/10/13 14:06:23;;;;;;;807.67;224.73;;;18.50;99.90;;;;;;5138600;27;20296;-87
2023/10/13 14:08:54;;;;;;;780.90;220.93;;;18.50;99.90;;;;;;5138218;27;20288;-85
2023/10/13 14:14:11;;;;;;;801.80;222.03;;;18.40;99.90;;;;;;5157347;27;20288;-87
2023/10/13 14:16:44;;;;;;;806.93;224.40;;;18.60;99.90;;;;;;5156829;27;20344;-85
2023/10/13 14:19:10;;;;;;;803.47;224.90;;;18.60;99.90;;;;;;5138904;27;20751;-86
2023/10/13 14:21:36;;;;;;;792.97;221.40;;;18.60;99.90;;;;;;5137700;27;20280;-86
2023/10/13 14:24:02;;;;;;;794.63;224.00;;;18.60;99.90;;;;;;5136698;27;20337;-85
2023/10/13 14:26:28;;;;;;;781.00;220.87;;;18.60;99.90;;;;;;5138543;27;20039;-85
2023/10/13 14:29:14;;;;;;;774.67;222.27;;;18.60;99.90;;;;;;5155468;27;20663;-84
2023/10/13 14:31:41;;;;;;;783.47;223.18;;;18.70;99.90;;;;;;5155039;27;20133;-85
2023/10/13 14:34:07;;;;;;;760.73;219.43;;;18.60;99.90;;;;;;5151636;27;20051;-84
2023/10/13 14:36:35;;;;;;;783.90;222.33;;;18.60;99.90;;;;;;5156295;27;20370;-83
2023/10/13 14:39:09;;;;;;;759.37;222.57;;;18.60;99.90;;;;;;5137296;27;20854;-84
2023/10/13 14:41:36;;;;;;;766.93;221.57;;;18.60;99.90;;;;;;5134341;27;20291;-84
2023/10/13 14:44:05;;;;;;;782.47;221.87;;;18.60;99.90;;;;;;5142250;27;20312;-84
2023/10/13 14:46:31;;;;;;;781.30;223.93;;;18.60;99.90;;;;;;5137153;27;20302;-83
2023/10/13 14:48:57;;;;;;;781.60;220.57;;;18.60;99.90;;;;;;5162054;27;20296;-83
2023/10/13 14:51:25;;;;;;;786.07;225.73;;;18.60;99.90;;;;;;5177323;27;20283;-83
2023/10/13 14:53:55;;;;;;;785.23;223.73;;;18.60;99.90;;;;;;5174998;27;20041;-82
2023/10/13 15:04:35;;;;;;;772.73;221.90;;;18.60;99.90;;;;;;5110845;27;20370;-83
2023/10/13 15:07:02;;;;;;;768.17;221.60;;;18.50;99.90;;;;;;5108110;28;20388;-81
2023/10/13 15:09:29;;;;;;;760.43;220.40;;;18.50;99.90;;;;;;5108650;27;20309;-82
2023/10/13 15:11:55;;;;;;;765.90;222.53;;;18.60;99.90;;;;;;5110131;28;20286;-81
2023/10/13 15:14:22;;;;;;;768.80;220.43;;;18.70;99.90;;;;;;5094398;28;20280;-82
2023/10/13 15:16:48;;;;;;;781.20;222.23;;;18.60;99.90;;;;;;5107656;28;20031;-84
2023/10/13 15:19:16;;;;;;;789.17;223.87;;;18.60;99.90;;;;;;5114828;28;20282;-84
2023/10/13 15:21:43;;;;;;;788.70;225.57;;;18.50;99.90;;;;;;5131631;27;20324;-83
2023/10/13 15:24:16;;;;;;;790.73;226.10;;;18.50;99.90;;;;;;5135855;27;20660;-84
2023/10/13 15:26:49;;;;;;;781.60;224.07;;;18.40;99.90;;;;;;5125596;27;20285;-83
2023/10/13 15:29:16;;;;;;;785.97;224.17;;;18.30;99.90;;;;;;5116201;28;20366;-84
2023/10/13 15:34:28;;;;;;;792.67;223.47;;;18.20;99.90;;;;;;5129654;27;20327;-83
2023/10/13 15:36:55;;;;;;;788.20;223.07;;;18.20;99.90;;;;;;5128262;28;20317;-83
2023/10/13 15:39:24;;;;;;;794.37;227.37;;;18.30;99.90;;;;;;5128701;28;20354;-83
2023/10/13 15:41:54;;;;;;;798.43;225.20;;;18.20;99.90;;;;;;5129546;28;20278;-83
2023/10/13 15:44:24;;;;;;;809.03;224.10;;;18.20;99.90;;;;;;5130243;28;20386;-83
2023/10/13 15:46:53;;;;;;;805.47;223.53;;;18.20;99.90;;;;;;5129398;28;20282;-82
2023/10/13 15:49:18;;;;;;;802.43;225.40;;;18.20;99.90;;;;;;5120849;27;20338;-85
2023/10/13 15:51:44;;;;;;;800.07;224.53;;;18.20;99.90;;;;;;5136880;27;20285;-82
2023/10/13 15:54:17;;;;;;;808.90;227.20;;;18.30;99.90;;;;;;5136159;27;20047;-82
2023/10/13 15:56:43;;;;;;;809.03;226.93;;;18.30;99.90;;;;;;5133244;27;20250;-83
2023/10/13 15:59:09;;;;;;;810.07;228.10;;;18.30;99.90;;;;;;5121063;27;20836;-84